createdAt,value
2019-02-09T00:02:21.277Z,93.50
2019-02-09T00:04:52.729Z,93.60
2019-02-09T00:07:24.132Z,93.50
2019-02-09T00:09:55.571Z,93.40
2019-02-09T00:12:27.282Z,93.40
2019-02-09T00:14:58.671Z,93.40
2019-02-09T00:17:30.123Z,93.40
2019-02-09T00:20:01.528Z,93.40
2019-02-09T00:22:33.033Z,93.40
2019-02-09T00:25:05.236Z,93.30
2019-02-09T00:27:36.628Z,93.30
2019-02-09T00:30:08.645Z,93.30
2019-02-09T00:32:40.309Z,93.30
2019-02-09T00:35:12.035Z,93.30
2019-02-09T00:37:43.555Z,93.30
2019-02-09T00:40:15.246Z,93.30
2019-02-09T00:42:46.791Z,93.30
2019-02-09T00:45:18.506Z,93.30
2019-02-09T00:47:50.000Z,93.20
2019-02-09T00:50:21.589Z,93.10
2019-02-09T00:52:53.070Z,93.10
2019-02-09T00:55:24.743Z,93.20
2019-02-09T00:57:56.514Z,93.30
2019-02-09T01:00:28.201Z,93.40
2019-02-09T01:02:59.714Z,93.40
2019-02-09T01:05:33.476Z,93.50
2019-02-09T01:08:05.084Z,93.40
2019-02-09T01:10:36.564Z,93.40
2019-02-09T01:13:08.073Z,93.40
2019-02-09T01:15:39.615Z,93.40
2019-02-09T01:18:11.117Z,93.40
2019-02-09T01:20:42.691Z,93.40
2019-02-09T01:23:14.180Z,93.50
2019-02-09T01:25:45.586Z,93.40
2019-02-09T01:28:17.080Z,93.50
2019-02-09T01:30:48.544Z,93.40
2019-02-09T01:33:20.056Z,93.40
2019-02-09T01:35:51.549Z,93.30
2019-02-09T01:38:23.167Z,93.30
2019-02-09T01:40:54.561Z,93.20
2019-02-09T01:43:25.953Z,93.20
2019-02-09T01:45:57.362Z,93.10
2019-02-09T01:48:28.763Z,93.10
2019-02-09T01:51:00.149Z,93.00
2019-02-09T01:53:31.560Z,93.00
2019-02-09T01:56:02.934Z,93.10
2019-02-09T01:58:34.384Z,93.10
2019-02-09T02:01:06.350Z,93.10
2019-02-09T02:03:37.819Z,93.20
2019-02-09T02:06:09.198Z,93.20
2019-02-09T02:08:40.576Z,93.10
2019-02-09T02:11:11.957Z,93.00
2019-02-09T02:13:43.338Z,93.00
2019-02-09T02:16:14.779Z,93.00
2019-02-09T02:18:47.170Z,93.00
2019-02-09T02:21:18.621Z,93.00
2019-02-09T02:23:50.247Z,93.00
2019-02-09T02:26:22.633Z,92.90
2019-02-09T02:28:54.029Z,92.90
2019-02-09T02:31:25.439Z,92.80
2019-02-09T02:33:56.838Z,92.80
2019-02-09T02:36:28.420Z,92.80
2019-02-09T02:38:59.908Z,92.80
2019-02-09T02:41:31.284Z,92.70
2019-02-09T02:44:02.677Z,92.70
2019-02-09T02:46:34.047Z,92.70
2019-02-09T02:49:05.534Z,92.60
2019-02-09T02:51:36.900Z,92.50
2019-02-09T02:54:08.295Z,92.40
2019-02-09T02:56:39.667Z,92.40
2019-02-09T02:59:11.158Z,92.80
2019-02-09T03:01:42.662Z,92.50
2019-02-09T03:04:14.210Z,92.50
2019-02-09T03:06:45.595Z,92.40
2019-02-09T03:09:17.016Z,92.30
2019-02-09T03:11:48.643Z,92.20
2019-02-09T03:14:20.053Z,92.10
2019-02-09T03:16:51.534Z,92.10
2019-02-09T03:19:23.047Z,92.10
2019-02-09T03:21:54.500Z,92.10
2019-02-09T03:24:26.036Z,92.00
2019-02-09T03:26:57.552Z,92.10
2019-02-09T03:29:29.023Z,92.30
2019-02-09T03:32:00.523Z,92.40
2019-02-09T03:34:32.007Z,92.50
2019-02-09T03:37:03.573Z,92.60
2019-02-09T03:39:35.009Z,92.60
2019-02-09T03:42:06.485Z,92.70
2019-02-09T03:44:38.091Z,92.60
2019-02-09T03:47:09.577Z,92.70
2019-02-09T03:49:41.104Z,92.70
2019-02-09T03:52:12.560Z,92.70
2019-02-09T03:54:44.019Z,92.70
2019-02-09T03:57:15.625Z,92.70
2019-02-09T03:59:47.025Z,92.70
2019-02-09T04:02:19.452Z,92.70
2019-02-09T04:04:50.905Z,92.70
2019-02-09T04:07:22.339Z,92.70
2019-02-09T04:09:53.725Z,92.70
2019-02-09T04:12:25.118Z,92.70
2019-02-09T04:14:56.504Z,92.80
2019-02-09T04:17:27.908Z,92.70
2019-02-09T04:19:59.303Z,92.70
2019-02-09T04:22:30.674Z,92.70
2019-02-09T04:25:02.047Z,92.70
2019-02-09T04:27:33.507Z,92.60
2019-02-09T04:30:07.344Z,92.60
2019-02-09T04:32:38.737Z,92.70
2019-02-09T04:35:10.148Z,92.70
2019-02-09T04:37:41.783Z,92.60
2019-02-09T04:40:15.131Z,92.70
2019-02-09T04:42:46.501Z,92.80
2019-02-09T04:45:18.390Z,92.90
2019-02-09T04:47:49.776Z,92.90
2019-02-09T04:50:21.176Z,92.90
2019-02-09T04:52:52.600Z,92.90
2019-02-09T04:55:24.986Z,92.90
2019-02-09T04:57:56.739Z,92.90
2019-02-09T05:00:29.646Z,92.90
2019-02-09T05:03:01.131Z,92.90
2019-02-09T05:05:32.765Z,93.00
2019-02-09T05:08:04.252Z,93.00
2019-02-09T05:10:35.894Z,92.90
2019-02-09T05:13:07.379Z,92.90
2019-02-09T05:15:38.833Z,92.90
2019-02-09T05:18:10.240Z,92.90
2019-02-09T05:20:41.602Z,92.90
2019-02-09T05:23:13.000Z,93.00
2019-02-09T05:25:44.351Z,93.10
2019-02-09T05:28:15.759Z,93.10
2019-02-09T05:30:47.121Z,93.20
2019-02-09T05:33:18.512Z,93.20
2019-02-09T05:35:49.891Z,93.20
2019-02-09T05:38:21.373Z,93.20
2019-02-09T05:40:52.851Z,93.20
2019-02-09T05:43:24.327Z,93.20
2019-02-09T05:45:55.778Z,93.30
2019-02-09T05:48:27.410Z,93.20
2019-02-09T05:50:58.890Z,93.20
2019-02-09T05:53:30.391Z,93.20
2019-02-09T05:56:01.908Z,93.20
2019-02-09T05:58:33.395Z,93.20
2019-02-09T06:01:04.950Z,93.20
2019-02-09T06:03:36.368Z,93.30
2019-02-09T06:06:07.998Z,93.30
2019-02-09T06:08:39.404Z,93.20
2019-02-09T06:11:10.863Z,93.20
2019-02-09T06:13:42.316Z,93.20
2019-02-09T06:16:13.872Z,93.20
2019-02-09T06:18:45.379Z,93.30
2019-02-09T06:21:16.835Z,93.30
2019-02-09T06:23:48.492Z,93.30
2019-02-09T06:26:19.922Z,93.30
2019-02-09T06:28:51.365Z,93.30
2019-02-09T06:31:22.880Z,93.20
2019-02-09T06:33:54.336Z,93.10
2019-02-09T06:36:25.981Z,93.00
2019-02-09T06:38:57.396Z,93.30
2019-02-09T06:41:28.959Z,93.00
2019-02-09T06:44:00.385Z,93.00
2019-02-09T06:46:31.880Z,93.10
2019-02-09T06:49:03.317Z,93.10
2019-02-09T06:51:34.961Z,93.10
2019-02-09T06:54:06.456Z,93.10
2019-02-09T06:56:37.968Z,93.10
2019-02-09T06:59:09.469Z,93.10
2019-02-09T07:01:48.324Z,93.10
2019-02-09T07:04:14.061Z,93.10
2019-02-09T07:06:45.444Z,93.10
2019-02-09T07:09:16.820Z,92.90
2019-02-09T07:11:48.200Z,92.80
2019-02-09T07:14:19.596Z,92.60
2019-02-09T07:16:51.167Z,92.50
2019-02-09T07:19:22.562Z,92.30
2019-02-09T07:21:53.957Z,95.00
2019-02-09T07:24:25.343Z,92.00
2019-02-09T07:26:56.737Z,91.90
2019-02-09T07:29:28.120Z,91.80
2019-02-09T07:31:59.525Z,91.70
2019-02-09T07:34:30.983Z,91.80
2019-02-09T07:37:02.381Z,91.70
2019-02-09T07:39:33.768Z,91.70
2019-02-09T07:42:05.287Z,91.70
2019-02-09T07:44:36.677Z,91.60
2019-02-09T07:47:08.103Z,91.60
2019-02-09T07:49:39.477Z,91.50
2019-02-09T07:52:10.985Z,91.50
2019-02-09T07:54:42.374Z,91.30
2019-02-09T07:57:13.782Z,90.60
2019-02-09T07:59:45.164Z,90.80
2019-02-09T08:02:16.552Z,90.60
2019-02-09T08:04:47.931Z,90.40
2019-02-09T08:07:19.318Z,90.10
2019-02-09T08:09:50.684Z,89.10
2019-02-09T08:12:22.105Z,88.30
2019-02-09T08:14:55.376Z,86.70
2019-02-09T08:17:26.835Z,84.10
2019-02-09T08:19:58.287Z,81.30
2019-02-09T08:22:29.716Z,79.00
2019-02-09T08:25:01.165Z,77.10
2019-02-09T08:27:32.560Z,75.40
2019-02-09T08:30:04.757Z,74.40
2019-02-09T08:32:36.193Z,72.90
2019-02-09T08:35:08.193Z,73.00
2019-02-09T08:37:40.577Z,67.80
2019-02-09T08:40:12.620Z,66.00
2019-02-09T08:42:44.038Z,65.60
2019-02-09T08:45:17.350Z,65.30
2019-02-09T08:47:48.928Z,64.70
2019-02-09T08:50:25.705Z,64.40
2019-02-09T08:52:57.105Z,63.70
2019-02-09T08:55:28.699Z,62.60
2019-02-09T08:58:00.111Z,59.40
2019-02-09T09:00:32.230Z,54.10
2019-02-09T09:03:03.664Z,51.80
2019-02-09T09:05:35.218Z,45.70
2019-02-09T09:08:07.752Z,42.20
2019-02-09T09:10:39.228Z,41.00
2019-02-09T09:13:10.628Z,40.70
2019-02-09T09:15:44.446Z,40.80
2019-02-09T09:18:15.921Z,40.50
2019-02-09T09:20:50.254Z,39.60
2019-02-09T09:23:21.696Z,38.40
2019-02-09T09:25:53.142Z,37.60
2019-02-09T09:28:24.620Z,37.10
2019-02-09T09:30:56.007Z,36.70
2019-02-09T09:33:27.587Z,36.20
2019-02-09T09:35:59.132Z,35.60
2019-02-09T09:38:30.535Z,34.30
2019-02-09T09:41:02.001Z,32.70
2019-02-09T09:43:34.081Z,34.50
2019-02-09T09:46:06.127Z,35.60
2019-02-09T09:48:37.522Z,34.00
2019-02-09T09:51:09.087Z,32.20
2019-02-09T09:53:40.749Z,31.40
2019-02-09T09:56:12.325Z,30.50
2019-02-09T09:58:43.725Z,29.70
2019-02-09T10:01:15.130Z,28.70
2019-02-09T10:03:46.685Z,28.50
2019-02-09T10:06:18.099Z,27.80
2019-02-09T10:08:49.596Z,28.50
2019-02-09T10:11:21.073Z,28.40
2019-02-09T10:13:52.506Z,27.90
2019-02-09T10:16:23.900Z,27.20
2019-02-09T10:18:55.456Z,24.60
2019-02-09T10:21:26.836Z,24.40
2019-02-09T10:23:58.692Z,24.50
2019-02-09T10:26:30.160Z,23.80
2019-02-09T10:29:01.931Z,22.80
2019-02-09T10:31:33.389Z,22.50
2019-02-09T10:34:04.973Z,21.80
2019-02-09T10:36:36.347Z,23.40
2019-02-09T10:39:09.551Z,24.50
2019-02-09T10:41:41.041Z,25.90
2019-02-09T10:44:12.456Z,26.60
2019-02-09T10:46:44.000Z,26.00
2019-02-09T10:49:15.465Z,25.40
2019-02-09T10:51:46.954Z,24.30
2019-02-09T10:54:18.455Z,24.00
2019-02-09T10:56:49.928Z,24.80
2019-02-09T10:59:21.433Z,26.80
2019-02-09T11:01:52.845Z,28.60
2019-02-09T11:04:24.420Z,30.50
2019-02-09T11:06:55.822Z,33.70
2019-02-09T11:09:27.291Z,36.30
2019-02-09T11:11:58.705Z,38.40
2019-02-09T11:14:30.125Z,37.90
2019-02-09T11:17:01.499Z,34.00
2019-02-09T11:19:32.977Z,29.90
2019-02-09T11:22:04.926Z,27.30
2019-02-09T11:24:36.444Z,25.60
2019-02-09T11:27:07.893Z,23.90
2019-02-09T11:29:39.469Z,22.80
2019-02-09T11:32:11.175Z,22.30
2019-02-09T11:34:42.597Z,21.30
2019-02-09T11:37:14.100Z,21.00
2019-02-09T11:39:45.659Z,21.20
2019-02-09T11:42:17.666Z,22.40
2019-02-09T11:44:49.177Z,24.80
2019-02-09T11:47:20.579Z,28.10
2019-02-09T11:49:52.023Z,29.70
2019-02-09T11:52:23.397Z,29.10
2019-02-09T11:54:54.835Z,27.80
2019-02-09T11:57:26.239Z,26.70
2019-02-09T11:59:57.657Z,25.70
2019-02-09T12:02:29.170Z,24.30
2019-02-09T12:05:00.651Z,24.10
2019-02-09T12:07:32.187Z,24.50
2019-02-09T12:10:03.821Z,24.30
2019-02-09T12:12:35.276Z,22.60
2019-02-09T12:15:09.105Z,20.60
2019-02-09T12:17:40.513Z,19.30
2019-02-09T12:20:13.940Z,18.60
2019-02-09T12:22:45.473Z,18.60
2019-02-09T12:25:19.159Z,18.50
2019-02-09T12:27:50.551Z,18.60
2019-02-09T12:30:24.075Z,18.70
2019-02-09T12:32:55.845Z,18.60
2019-02-09T12:35:27.393Z,18.40
2019-02-09T12:37:58.922Z,18.10
2019-02-09T12:40:31.818Z,17.60
2019-02-09T12:43:04.290Z,17.80
2019-02-09T12:45:36.467Z,17.50
2019-02-09T12:48:08.100Z,17.80
2019-02-09T12:50:40.225Z,19.70
2019-02-09T12:53:11.889Z,22.60
2019-02-09T12:55:43.338Z,25.00
2019-02-09T12:58:14.900Z,26.20
2019-02-09T13:00:46.304Z,26.30
2019-02-09T13:03:30.697Z,24.00
2019-02-09T13:05:56.302Z,22.90
2019-02-09T13:08:27.723Z,22.40
2019-02-09T13:10:59.170Z,22.20
2019-02-09T13:13:30.627Z,22.30
2019-02-09T13:16:02.111Z,24.20
2019-02-09T13:18:33.582Z,26.10
2019-02-09T13:21:05.328Z,28.40
2019-02-09T13:23:36.728Z,30.70
2019-02-09T13:26:08.132Z,33.60
2019-02-09T13:28:39.586Z,36.10
2019-02-09T13:31:11.153Z,37.60
2019-02-09T13:33:42.612Z,40.70
2019-02-09T13:36:14.102Z,42.60
2019-02-09T13:38:45.726Z,43.70
2019-02-09T13:41:17.152Z,44.30
2019-02-09T13:43:48.679Z,44.70
2019-02-09T13:46:20.136Z,45.30
2019-02-09T13:48:51.607Z,46.30
2019-02-09T13:51:23.148Z,46.60
2019-02-09T13:53:54.633Z,47.50
2019-02-09T13:56:26.332Z,48.20
2019-02-09T13:58:57.765Z,49.10
2019-02-09T14:01:29.235Z,49.70
2019-02-09T14:04:00.741Z,50.40
2019-02-09T14:06:32.227Z,50.90
2019-02-09T14:09:04.900Z,51.30
2019-02-09T14:11:36.288Z,51.70
2019-02-09T14:14:07.791Z,51.80
2019-02-09T14:16:39.215Z,52.00
2019-02-09T14:19:10.732Z,52.30
2019-02-09T14:21:42.187Z,52.60
2019-02-09T14:24:13.645Z,53.10
2019-02-09T14:26:45.301Z,53.20
2019-02-09T14:29:17.970Z,53.30
2019-02-09T14:31:49.413Z,53.10
2019-02-09T14:34:20.807Z,53.20
2019-02-09T14:36:52.299Z,53.40
2019-02-09T14:39:23.776Z,53.70
2019-02-09T14:41:55.263Z,54.00
2019-02-09T14:44:26.755Z,54.20
2019-02-09T14:46:58.237Z,54.40
2019-02-09T14:49:29.770Z,54.60
2019-02-09T14:52:01.366Z,54.70
2019-02-09T14:54:32.894Z,54.90
2019-02-09T14:57:04.454Z,55.20
2019-02-09T14:59:35.971Z,55.60
2019-02-09T15:02:07.648Z,56.30
2019-02-09T15:04:39.113Z,56.90
2019-02-09T15:07:10.585Z,57.40
2019-02-09T15:09:42.038Z,57.80
2019-02-09T15:12:14.493Z,58.30
2019-02-09T15:14:45.920Z,58.60
2019-02-09T15:17:17.514Z,58.60
2019-02-09T15:19:49.005Z,58.80
2019-02-09T15:22:20.520Z,59.40
2019-02-09T15:24:52.149Z,60.60
2019-02-09T15:27:23.625Z,62.10
2019-02-09T15:29:55.132Z,63.90
2019-02-09T15:32:26.552Z,65.50
2019-02-09T15:34:58.045Z,71.00
2019-02-09T15:37:29.565Z,67.90
2019-02-09T15:40:00.992Z,69.60
2019-02-09T15:42:32.512Z,70.60
2019-02-09T15:45:04.365Z,71.70
2019-02-09T15:47:35.839Z,71.90
2019-02-09T15:50:07.819Z,73.00
2019-02-09T15:52:39.322Z,73.30
2019-02-09T15:55:12.410Z,74.10
2019-02-09T15:57:43.861Z,74.60
2019-02-09T16:00:20.389Z,75.00
2019-02-09T16:02:52.758Z,75.50
2019-02-09T16:05:24.514Z,75.90
2019-02-09T16:07:56.378Z,76.00
2019-02-09T16:10:27.830Z,76.50
2019-02-09T16:12:59.305Z,76.50
2019-02-09T16:15:30.931Z,76.50
2019-02-09T16:18:02.383Z,76.80
2019-02-09T16:20:33.848Z,76.80
2019-02-09T16:23:05.841Z,76.30
2019-02-09T16:25:37.385Z,76.00
2019-02-09T16:28:09.126Z,76.00
2019-02-09T16:30:40.607Z,76.10
2019-02-09T16:33:12.077Z,76.80
2019-02-09T16:35:43.509Z,76.70
2019-02-09T16:38:15.043Z,77.00
2019-02-09T16:40:46.590Z,78.50
2019-02-09T16:43:18.148Z,78.10
2019-02-09T16:45:49.637Z,78.40
2019-02-09T16:48:21.122Z,78.80
2019-02-09T16:50:52.598Z,78.70
2019-02-09T16:53:24.138Z,78.50
2019-02-09T16:55:55.672Z,78.10
2019-02-09T16:58:27.249Z,78.10
2019-02-09T17:00:58.719Z,77.80
2019-02-09T17:03:30.321Z,76.90
2019-02-09T17:06:01.885Z,77.00
2019-02-09T17:08:33.368Z,77.10
2019-02-09T17:11:04.798Z,77.70
2019-02-09T17:13:36.332Z,78.30
2019-02-09T17:16:07.767Z,79.00
2019-02-09T17:18:39.339Z,79.50
2019-02-09T17:21:10.765Z,79.70
2019-02-09T17:23:42.252Z,80.00
2019-02-09T17:26:15.091Z,79.80
2019-02-09T17:28:46.533Z,79.30
2019-02-09T17:31:17.956Z,79.50
2019-02-09T17:33:49.365Z,79.20
2019-02-09T17:36:20.814Z,79.30
2019-02-09T17:38:52.242Z,79.30
2019-02-09T17:41:23.759Z,78.90
2019-02-09T17:43:55.279Z,79.10
2019-02-09T17:46:26.743Z,79.00
2019-02-09T17:48:58.238Z,78.80
2019-02-09T17:51:29.660Z,78.50
2019-02-09T17:54:01.144Z,78.20
2019-02-09T17:56:32.625Z,78.20
2019-02-09T17:59:04.244Z,78.30
2019-02-09T18:01:35.709Z,78.40
2019-02-09T18:04:07.230Z,78.30
2019-02-09T18:06:38.779Z,78.30
2019-02-09T18:09:10.263Z,78.30
2019-02-09T18:11:41.880Z,78.20
2019-02-09T18:14:13.417Z,78.10
2019-02-09T18:16:44.869Z,78.00
2019-02-09T18:19:16.388Z,78.10
2019-02-09T18:21:47.868Z,78.00
2019-02-09T18:24:19.409Z,82.60
2019-02-09T18:26:50.992Z,78.20
2019-02-09T18:29:22.421Z,78.30
2019-02-09T18:31:53.852Z,78.60
2019-02-09T18:34:25.355Z,78.90
2019-02-09T18:36:56.783Z,79.30
2019-02-09T18:39:28.278Z,79.40
2019-02-09T18:41:59.773Z,79.60
2019-02-09T18:44:31.783Z,80.00
2019-02-09T18:47:03.208Z,80.40
2019-02-09T18:49:34.697Z,80.50
2019-02-09T18:52:06.131Z,81.10
2019-02-09T18:54:37.660Z,81.60
2019-02-09T18:57:09.204Z,81.90
2019-02-09T18:59:40.715Z,82.20
2019-02-09T19:02:12.225Z,82.60
2019-02-09T19:04:43.651Z,82.40
2019-02-09T19:07:15.150Z,82.40
2019-02-09T19:09:46.658Z,82.30
2019-02-09T19:12:18.112Z,82.50
2019-02-09T19:14:49.540Z,82.30
2019-02-09T19:17:21.947Z,82.20
2019-02-09T19:19:53.551Z,82.20
2019-02-09T19:22:24.982Z,82.20
2019-02-09T19:24:56.802Z,82.00
2019-02-09T19:27:28.381Z,81.90
2019-02-09T19:29:59.850Z,81.70
2019-02-09T19:32:31.410Z,81.70
2019-02-09T19:35:03.254Z,81.90
2019-02-09T19:37:34.821Z,82.20
2019-02-09T19:40:07.806Z,82.30
2019-02-09T19:42:39.368Z,82.20
2019-02-09T19:45:21.812Z,82.60
2019-02-09T19:47:53.507Z,83.50
2019-02-09T19:50:25.018Z,82.70
2019-02-09T19:52:56.552Z,83.10
2019-02-09T19:55:29.133Z,83.60
2019-02-09T19:58:00.938Z,83.30
2019-02-09T20:00:37.017Z,83.30
2019-02-09T20:03:08.777Z,83.30
2019-02-09T20:05:40.236Z,83.30
2019-02-09T20:08:12.131Z,83.60
2019-02-09T20:10:43.781Z,83.70
2019-02-09T20:13:15.580Z,83.80
2019-02-09T20:16:04.820Z,84.00
2019-02-09T20:18:54.427Z,84.10
2019-02-09T20:21:44.568Z,84.20
2019-02-09T20:24:34.599Z,84.40
2019-02-09T20:27:24.545Z,84.40
2019-02-09T20:30:39.185Z,84.70
2019-02-09T20:33:28.508Z,85.10
2019-02-09T20:36:18.423Z,85.30
2019-02-09T20:39:09.742Z,85.50
2019-02-09T20:42:00.030Z,85.40
2019-02-09T20:44:50.108Z,85.60
2019-02-09T20:47:47.464Z,85.70
2019-02-09T20:50:31.031Z,86.40
2019-02-09T20:53:21.476Z,86.60
2019-02-09T20:56:11.016Z,87.00
2019-02-09T20:59:00.712Z,86.90
2019-02-09T21:01:49.828Z,86.80
2019-02-09T21:04:39.669Z,86.80
2019-02-09T21:07:29.050Z,86.90
2019-02-09T21:10:26.737Z,86.60
2019-02-09T21:13:16.670Z,86.60
2019-02-09T21:16:06.953Z,87.00
2019-02-09T21:18:56.444Z,87.30
2019-02-09T21:21:46.288Z,87.90
2019-02-09T21:24:35.861Z,88.40
2019-02-09T21:27:26.152Z,88.80
2019-02-09T21:30:18.430Z,88.90
2019-02-09T21:33:08.263Z,89.10
2019-02-09T21:35:58.144Z,89.30
2019-02-09T21:38:49.057Z,89.40
2019-02-09T21:41:39.216Z,89.60
2019-02-09T21:44:29.352Z,89.70
2019-02-09T21:47:19.286Z,90.00
2019-02-09T21:50:12.412Z,90.00
2019-02-09T21:53:01.867Z,90.00
2019-02-09T21:55:51.414Z,90.10
2019-02-09T21:58:40.869Z,90.10
2019-02-09T22:01:29.915Z,90.10
2019-02-09T22:04:19.592Z,90.20
2019-02-09T22:07:09.813Z,90.30
2019-02-09T22:09:59.364Z,90.40
2019-02-09T22:12:48.976Z,90.40
2019-02-09T22:15:39.179Z,90.40
2019-02-09T22:18:28.870Z,90.30
2019-02-09T22:21:19.301Z,90.20
2019-02-09T22:24:09.210Z,90.20
2019-02-09T22:26:59.421Z,90.20
2019-02-09T22:29:49.878Z,90.20
2019-02-09T22:32:39.975Z,90.20
2019-02-09T22:35:30.494Z,90.30
2019-02-09T22:38:20.676Z,90.30
2019-02-09T22:41:10.637Z,90.30
2019-02-09T22:44:00.757Z,90.40
2019-02-09T22:46:50.894Z,90.40
2019-02-09T22:49:40.272Z,90.40
2019-02-09T22:52:30.340Z,90.50
2019-02-09T22:55:20.495Z,90.60
2019-02-09T22:58:09.585Z,90.70
2019-02-09T23:01:17.264Z,90.70
2019-02-09T23:04:35.291Z,90.70
2019-02-09T23:07:28.082Z,90.80
2019-02-09T23:10:17.872Z,90.80
2019-02-09T23:13:07.502Z,90.90
2019-02-09T23:15:57.244Z,90.80
2019-02-09T23:18:46.650Z,90.80
2019-02-09T23:21:36.609Z,90.90
2019-02-09T23:24:25.761Z,90.90
2019-02-09T23:27:15.714Z,90.80
2019-02-09T23:30:07.432Z,90.60
2019-02-09T23:32:56.987Z,90.70
2019-02-09T23:35:47.025Z,90.80
2019-02-09T23:38:37.077Z,91.00
2019-02-09T23:41:27.238Z,91.20
2019-02-09T23:44:17.452Z,91.30
2019-02-09T23:47:06.817Z,91.40
2019-02-09T23:49:56.358Z,91.50
2019-02-09T23:52:45.926Z,91.70
2019-02-09T23:55:35.827Z,91.80
2019-02-09T23:58:25.140Z,91.90
